createdAt,value
2019-01-14T00:08:33.591Z,21.8
2019-01-14T00:18:32.796Z,21.7
2019-01-14T00:28:31.996Z,22
2019-01-14T00:38:31.848Z,21.9
2019-01-14T00:48:30.400Z,21.8
2019-01-14T00:58:29.611Z,21.7
2019-01-14T01:08:28.813Z,21.6
2019-01-14T01:18:28.013Z,21.8
2019-01-14T01:28:27.222Z,21.9
2019-01-14T01:38:26.419Z,21.9
2019-01-14T01:48:25.618Z,22.1
2019-01-14T01:58:24.819Z,22
2019-01-14T02:08:24.025Z,21.8
2019-01-14T02:18:23.228Z,21.7
2019-01-14T02:28:22.427Z,21.9
2019-01-14T02:38:21.629Z,21.9
2019-01-14T02:48:20.830Z,22
2019-01-14T02:58:20.039Z,21.9
2019-01-14T03:08:19.239Z,21.9
2019-01-14T03:18:18.441Z,22
2019-01-14T03:28:17.640Z,22.1
2019-01-14T03:38:16.843Z,22
2019-01-14T03:48:16.046Z,21.9
2019-01-14T03:58:15.247Z,22.1
2019-01-14T04:08:14.447Z,21.9
2019-01-14T04:18:13.647Z,22.1
2019-01-14T04:28:12.851Z,21.9
2019-01-14T04:38:12.055Z,22.1
2019-01-14T04:48:11.260Z,21.9
2019-01-14T04:58:10.463Z,22.1
2019-01-14T05:08:09.668Z,22.1
2019-01-14T05:18:08.882Z,22
2019-01-14T05:28:08.089Z,21.8
2019-01-14T05:38:07.299Z,21.9
2019-01-14T05:48:06.506Z,21.9
2019-01-14T05:58:05.723Z,22.1
2019-01-14T06:08:04.923Z,22.3
2019-01-14T06:18:04.126Z,22.2
2019-01-14T06:28:03.327Z,21.9
2019-01-14T06:38:02.530Z,22
2019-01-14T06:48:01.739Z,22.3
2019-01-14T06:58:00.938Z,22.3
2019-01-14T07:08:00.136Z,22.3
2019-01-14T07:17:59.343Z,22.4
2019-01-14T07:27:58.541Z,22.3
2019-01-14T07:37:57.744Z,22.4
2019-01-14T07:47:56.947Z,22.2
2019-01-14T07:57:56.150Z,22.2
2019-01-14T08:07:55.350Z,22.3
2019-01-14T08:17:54.599Z,22.4
2019-01-14T08:27:53.750Z,22.5
2019-01-14T08:37:52.953Z,22.3
2019-01-14T08:47:52.155Z,22.1
2019-01-14T08:57:54.531Z,22
2019-01-14T09:07:50.560Z,21.9
2019-01-14T09:17:49.756Z,21.8
2019-01-14T09:27:48.960Z,21.8
2019-01-14T09:37:48.157Z,21.6
2019-01-14T09:47:47.357Z,21.6
2019-01-14T09:57:46.565Z,21.9
2019-01-14T10:07:45.762Z,22.3
2019-01-14T10:17:44.963Z,22.4
2019-01-14T10:27:44.164Z,22.5
2019-01-14T10:37:43.361Z,22.6
2019-01-14T10:47:42.567Z,22.7
2019-01-14T10:57:41.771Z,22.4
2019-01-14T11:07:40.975Z,22.3
2019-01-14T11:17:40.186Z,22.4
2019-01-14T11:27:39.391Z,22.4
2019-01-14T11:37:38.599Z,22.2
2019-01-14T11:47:37.814Z,22
2019-01-14T11:57:37.017Z,21.9
2019-01-14T12:07:36.221Z,21.9
2019-01-14T12:17:35.430Z,22.1
2019-01-14T12:27:34.634Z,22.2
2019-01-14T12:37:33.837Z,22.1
2019-01-14T12:47:33.045Z,21.9
2019-01-14T12:57:32.246Z,21.8
2019-01-14T13:07:31.451Z,21.8
2019-01-14T13:17:30.656Z,21.7
2019-01-14T13:27:29.863Z,21.6
2019-01-14T13:37:29.068Z,21.8
2019-01-14T13:47:28.266Z,22.1
2019-01-14T13:57:27.471Z,22.3
2019-01-14T14:07:26.672Z,22.4
2019-01-14T14:17:25.876Z,22.3
2019-01-14T14:27:25.080Z,22.1
2019-01-14T14:37:24.278Z,22.3
2019-01-14T14:47:23.480Z,22.4
2019-01-14T14:57:22.682Z,22.4
2019-01-14T15:07:21.932Z,22.4
2019-01-14T15:17:21.091Z,22.4
2019-01-14T15:27:20.285Z,22.4
2019-01-14T15:37:19.488Z,22.6
2019-01-14T15:47:18.740Z,22.4
2019-01-14T15:57:17.890Z,22.4
2019-01-14T16:07:17.096Z,22.5
2019-01-14T16:17:16.296Z,22.3
2019-01-14T16:27:15.552Z,22.5
2019-01-14T16:37:14.696Z,22.5
2019-01-14T16:47:13.903Z,22.4
2019-01-14T16:57:13.112Z,22.3
2019-01-14T17:07:12.619Z,22.2
2019-01-14T17:17:11.525Z,22.1
2019-01-14T17:27:10.731Z,22.3
2019-01-14T17:37:09.995Z,22.3
2019-01-14T17:47:09.205Z,22.2
2019-01-14T17:57:08.360Z,22.1
2019-01-14T18:07:07.567Z,21.9
2019-01-14T18:17:06.776Z,21.9
2019-01-14T18:27:05.980Z,21.8
2019-01-14T18:37:05.188Z,21.8
2019-01-14T18:47:04.401Z,21.8
2019-01-14T18:57:03.611Z,21.8
2019-01-14T19:07:02.822Z,21.8
2019-01-14T19:17:02.035Z,22.3
2019-01-14T19:27:01.249Z,22.4
2019-01-14T19:37:00.497Z,22.4
2019-01-14T19:46:59.690Z,22.3
2019-01-14T19:56:58.902Z,22.4
2019-01-14T20:06:58.116Z,22.5
2019-01-14T20:16:57.329Z,22.4
2019-01-14T20:26:56.544Z,22.3
2019-01-14T20:36:55.760Z,22.2
2019-01-14T20:46:54.971Z,22.1
2019-01-14T20:56:54.185Z,22.1
2019-01-14T21:06:53.394Z,22.4
2019-01-14T21:16:53.649Z,22.2
2019-01-14T21:26:51.808Z,22
2019-01-14T21:36:51.017Z,21.8
2019-01-14T21:46:50.230Z,21.8
2019-01-14T21:56:49.431Z,21.7
2019-01-14T22:06:48.640Z,22.1
2019-01-14T22:16:47.847Z,22.1
2019-01-14T22:26:47.056Z,21.9
2019-01-14T22:36:46.263Z,21.9
2019-01-14T22:46:45.472Z,22.3
2019-01-14T22:56:44.675Z,21.9
2019-01-14T23:06:43.882Z,21.8
2019-01-14T23:16:43.093Z,21.8
2019-01-14T23:26:42.295Z,21.8
2019-01-14T23:36:41.499Z,22.2
2019-01-14T23:46:40.702Z,21.9
2019-01-14T23:56:39.912Z,21.8
